createdAt,value
2023-02-15T00:01:13.516Z,7.62
2023-02-15T00:06:16.144Z,7.46
2023-02-15T00:11:38.232Z,7.47
2023-02-15T00:16:41.924Z,7.60
2023-02-15T00:21:48.057Z,7.60
2023-02-15T00:26:50.718Z,7.41
2023-02-15T00:31:53.603Z,7.49
2023-02-15T00:36:55.811Z,7.26
2023-02-15T00:41:58.107Z,7.19
2023-02-15T00:47:00.346Z,7.13
2023-02-15T00:52:02.536Z,7.28
2023-02-15T00:57:04.783Z,7.18
2023-02-15T01:02:06.958Z,7.24
2023-02-15T01:07:09.185Z,7.10
2023-02-15T01:12:11.378Z,7.02
2023-02-15T01:17:13.535Z,6.90
2023-02-15T01:22:15.842Z,6.85
2023-02-15T01:27:18.146Z,6.85
2023-02-15T01:32:20.387Z,6.82
2023-02-15T01:37:22.559Z,6.99
2023-02-15T01:42:26.088Z,7.14
2023-02-15T01:47:45.518Z,7.48
2023-02-15T01:53:03.291Z,7.40
2023-02-15T01:58:05.752Z,7.26
2023-02-15T02:03:08.378Z,7.38
2023-02-15T02:08:11.026Z,7.31
2023-02-15T02:13:13.328Z,7.26
2023-02-15T02:18:33.310Z,7.23
2023-02-15T02:24:01.950Z,7.06
2023-02-15T02:29:28.971Z,6.89
2023-02-15T02:34:58.172Z,6.28
2023-02-15T02:40:12.586Z,6.55
2023-02-15T02:45:52.532Z,6.90
2023-02-15T02:50:54.703Z,6.74
2023-02-15T02:56:22.791Z,6.58
2023-02-15T03:01:33.827Z,6.81
2023-02-15T03:06:52.327Z,6.90
2023-02-15T03:11:54.635Z,6.72
2023-02-15T03:16:57.707Z,6.29
2023-02-15T03:22:10.561Z,6.20
2023-02-15T03:27:19.528Z,5.30
2023-02-15T03:32:23.131Z,5.41
2023-02-15T03:37:38.835Z,5.80
2023-02-15T03:42:42.004Z,5.81
2023-02-15T03:47:48.628Z,5.94
2023-02-15T03:52:51.046Z,6.02
2023-02-15T03:58:12.466Z,6.19
2023-02-15T04:03:17.446Z,6.22
2023-02-15T04:08:19.650Z,6.19
2023-02-15T04:13:32.814Z,6.49
2023-02-15T04:18:57.545Z,6.16
2023-02-15T04:24:18.480Z,5.90
2023-02-15T04:29:24.867Z,6.28
2023-02-15T04:34:27.545Z,6.24
2023-02-15T04:39:33.611Z,6.24
2023-02-15T04:44:35.873Z,6.27
2023-02-15T04:49:38.006Z,6.41
2023-02-15T04:54:40.444Z,6.26
2023-02-15T04:59:42.746Z,5.99
2023-02-15T05:04:45.091Z,6.42
2023-02-15T05:09:47.518Z,6.41
2023-02-15T05:14:49.805Z,6.37
2023-02-15T05:19:52.164Z,6.47
2023-02-15T05:25:12.864Z,6.61
2023-02-15T05:30:15.555Z,6.43
2023-02-15T05:35:18.272Z,6.63
2023-02-15T05:40:20.397Z,6.82
2023-02-15T05:45:22.585Z,6.57
2023-02-15T05:50:24.742Z,6.51
2023-02-15T05:55:27.036Z,6.41
2023-02-15T06:00:29.184Z,6.23
2023-02-15T06:05:31.863Z,6.39
2023-02-15T06:10:34.136Z,6.50
2023-02-15T06:15:36.403Z,6.82
2023-02-15T06:20:38.700Z,7.06
2023-02-15T06:25:40.958Z,6.96
2023-02-15T06:30:43.216Z,7.12
2023-02-15T06:35:47.473Z,7.40
2023-02-15T06:40:49.767Z,7.72
2023-02-15T06:45:52.149Z,7.92
2023-02-15T06:50:54.342Z,7.88
2023-02-15T06:56:04.510Z,7.68
2023-02-15T07:01:10.367Z,7.44
2023-02-15T07:06:13.259Z,7.07
2023-02-15T07:11:33.907Z,7.80
2023-02-15T07:16:36.047Z,7.77
2023-02-15T07:21:38.569Z,8.07
2023-02-15T07:26:40.833Z,7.78
2023-02-15T07:31:47.687Z,7.41
2023-02-15T07:36:52.420Z,8.10
2023-02-15T07:41:54.837Z,9.04
2023-02-15T07:46:57.820Z,9.11
2023-02-15T07:52:02.147Z,9.73
2023-02-15T07:57:04.476Z,9.17
2023-02-15T08:02:11.509Z,9.56
2023-02-15T08:07:13.716Z,9.55
2023-02-15T08:12:15.853Z,9.22
2023-02-15T08:17:18.103Z,9.12
2023-02-15T08:22:20.273Z,9.20
2023-02-15T08:27:27.997Z,9.47
2023-02-15T08:32:30.080Z,9.71
2023-02-15T08:37:32.384Z,10.10
2023-02-15T08:42:35.696Z,10.02
2023-02-15T08:47:37.882Z,10.31
2023-02-15T08:52:40.049Z,10.55
2023-02-15T08:57:46.206Z,10.67
2023-02-15T09:02:48.381Z,10.60
2023-02-15T09:07:50.662Z,10.77
2023-02-15T09:12:53.920Z,10.96
2023-02-15T09:18:02.732Z,10.48
2023-02-15T09:23:04.944Z,10.02
2023-02-15T09:28:07.178Z,10.41
2023-02-15T09:33:09.401Z,10.54
2023-02-15T09:38:13.468Z,10.96
2023-02-15T09:43:34.563Z,11.23
2023-02-15T09:48:41.813Z,11.45
2023-02-15T09:54:12.675Z,11.33
2023-02-15T09:59:42.614Z,11.67
2023-02-15T10:05:22.132Z,11.78
2023-02-15T10:10:49.008Z,11.93
2023-02-15T10:16:17.981Z,11.64
2023-02-15T10:21:41.645Z,11.83
2023-02-15T10:26:47.836Z,11.87
2023-02-15T10:31:56.577Z,12.33
2023-02-15T10:37:10.678Z,12.55
2023-02-15T10:42:36.244Z,12.68
2023-02-15T10:47:53.679Z,12.88
2023-02-15T10:53:30.797Z,13.15
2023-02-15T10:58:35.521Z,13.43
2023-02-15T11:03:43.155Z,13.66
2023-02-15T11:08:52.943Z,13.84
2023-02-15T11:14:01.355Z,13.93
2023-02-15T11:19:49.050Z,13.96
2023-02-15T11:24:51.548Z,14.05
2023-02-15T11:30:02.324Z,14.26
2023-02-15T11:35:13.818Z,14.22
2023-02-15T11:40:29.738Z,14.56
2023-02-15T11:45:35.710Z,14.90
2023-02-15T11:50:38.533Z,14.72
2023-02-15T11:55:41.285Z,14.64
2023-02-15T12:00:47.210Z,14.64
2023-02-15T12:05:54.974Z,14.56
2023-02-15T12:11:09.486Z,14.48
2023-02-15T12:16:14.265Z,14.23
2023-02-15T12:21:30.477Z,14.49
2023-02-15T12:26:36.503Z,14.48
2023-02-15T12:31:42.103Z,14.91
2023-02-15T12:36:48.268Z,15.07
2023-02-15T12:41:56.423Z,15.42
2023-02-15T12:47:05.101Z,14.90
2023-02-15T12:52:25.602Z,14.81
2023-02-15T12:57:30.977Z,14.62
2023-02-15T13:02:49.562Z,14.78
2023-02-15T13:07:57.237Z,14.76
2023-02-15T13:12:59.889Z,14.74
2023-02-15T13:18:04.285Z,14.94
2023-02-15T13:23:14.885Z,15.61
2023-02-15T13:28:20.013Z,15.60
2023-02-15T13:33:33.110Z,15.22
2023-02-15T13:38:46.303Z,15.06
2023-02-15T13:43:52.219Z,15.77
2023-02-15T13:49:18.015Z,16.22
2023-02-15T13:54:26.423Z,16.11
2023-02-15T13:59:46.734Z,16.48
2023-02-15T14:05:18.018Z,16.47
2023-02-15T14:10:29.268Z,15.80
2023-02-15T14:15:36.066Z,16.29
2023-02-15T14:21:15.642Z,15.70
2023-02-15T14:26:35.644Z,15.71
2023-02-15T14:31:47.284Z,15.64
2023-02-15T14:36:52.261Z,15.48
2023-02-15T14:42:01.160Z,15.76
2023-02-15T14:47:13.145Z,16.23
2023-02-15T14:52:15.342Z,16.16
2023-02-15T14:57:17.595Z,16.12
2023-02-15T15:02:43.508Z,16.65
2023-02-15T15:07:59.143Z,16.91
2023-02-15T15:13:30.135Z,16.59
2023-02-15T15:18:45.732Z,16.76
2023-02-15T15:23:48.227Z,15.95
2023-02-15T15:28:50.358Z,14.79
2023-02-15T15:34:10.998Z,15.18
2023-02-15T15:39:56.494Z,14.85
2023-02-15T15:45:27.999Z,14.31
2023-02-15T15:50:30.649Z,14.10
2023-02-15T15:55:35.096Z,13.99
2023-02-15T16:00:46.165Z,14.34
2023-02-15T16:05:54.081Z,13.86
2023-02-15T16:10:56.816Z,14.03
2023-02-15T16:15:59.238Z,14.19
2023-02-15T16:21:03.010Z,14.04
2023-02-15T16:26:14.355Z,13.94
2023-02-15T16:31:17.988Z,13.79
2023-02-15T16:36:26.759Z,13.65
2023-02-15T16:41:30.765Z,13.57
2023-02-15T16:46:37.846Z,13.26
2023-02-15T16:51:45.533Z,12.45
2023-02-15T16:56:48.315Z,12.45
2023-02-15T17:01:52.580Z,12.37
2023-02-15T17:07:21.445Z,12.69
2023-02-15T17:12:56.450Z,12.82
2023-02-15T17:18:06.367Z,12.76
2023-02-15T17:23:19.689Z,12.69
2023-02-15T17:28:32.760Z,12.40
2023-02-15T17:33:35.338Z,12.41
2023-02-15T17:38:39.560Z,12.36
2023-02-15T17:43:43.411Z,12.50
2023-02-15T17:48:49.291Z,12.29
2023-02-15T17:54:10.634Z,11.58
2023-02-15T17:59:14.479Z,11.74
2023-02-15T18:04:35.117Z,11.98
2023-02-15T18:09:55.928Z,12.05
2023-02-15T18:14:59.585Z,11.89
2023-02-15T18:20:06.002Z,10.99
2023-02-15T18:25:14.957Z,11.05
2023-02-15T18:30:21.876Z,11.19
2023-02-15T18:35:31.422Z,10.50
2023-02-15T18:40:36.306Z,10.95
2023-02-15T18:45:40.502Z,10.87
2023-02-15T18:50:42.756Z,11.07
2023-02-15T18:55:45.189Z,10.65
2023-02-15T19:00:49.238Z,10.66
2023-02-15T19:05:51.499Z,10.61
2023-02-15T19:10:53.793Z,10.29
2023-02-15T19:15:56.214Z,10.29
2023-02-15T19:20:58.472Z,9.98
2023-02-15T19:26:01.820Z,9.83
2023-02-15T19:31:04.366Z,9.93
2023-02-15T19:36:17.797Z,9.50
2023-02-15T19:41:33.453Z,9.50
2023-02-15T19:46:37.398Z,9.63
2023-02-15T19:51:40.446Z,9.57
2023-02-15T19:56:42.651Z,9.40
2023-02-15T20:01:44.817Z,9.05
2023-02-15T20:06:49.224Z,9.30
2023-02-15T20:11:55.520Z,9.23
2023-02-15T20:16:57.627Z,9.10
2023-02-15T20:22:14.138Z,9.05
2023-02-15T20:27:18.612Z,8.56
2023-02-15T20:32:21.030Z,8.88
2023-02-15T20:37:29.283Z,8.54
2023-02-15T20:42:31.472Z,8.29
2023-02-15T20:47:33.589Z,8.91
2023-02-15T20:52:35.906Z,8.71
2023-02-15T20:57:38.269Z,8.63
2023-02-15T21:02:43.296Z,8.55
2023-02-15T21:07:46.151Z,8.28
2023-02-15T21:12:49.178Z,8.47
2023-02-15T21:17:51.544Z,8.28
2023-02-15T21:22:54.121Z,8.16
2023-02-15T21:27:56.395Z,8.09
2023-02-15T21:32:58.542Z,8.05
2023-02-15T21:38:00.789Z,8.12
2023-02-15T21:43:21.580Z,8.03
2023-02-15T21:48:23.807Z,7.99
2023-02-15T21:53:30.872Z,8.05
2023-02-15T21:58:36.785Z,8.06
2023-02-15T22:09:27.278Z,7.64
2023-02-15T22:14:37.662Z,7.64
2023-02-15T22:19:39.630Z,7.18
2023-02-15T22:24:42.692Z,7.34
2023-02-15T22:29:45.059Z,7.26
2023-02-15T22:34:47.445Z,7.61
2023-02-15T22:39:49.765Z,7.59
2023-02-15T22:44:54.656Z,7.58
2023-02-15T22:49:56.859Z,7.65
2023-02-15T22:54:58.967Z,7.49
2023-02-15T23:00:04.432Z,7.64
2023-02-15T23:05:06.764Z,7.63
2023-02-15T23:10:21.416Z,7.58
2023-02-15T23:15:23.672Z,6.94
2023-02-15T23:20:26.318Z,6.57
2023-02-15T23:25:28.503Z,6.54
2023-02-15T23:30:30.833Z,6.77
2023-02-15T23:35:33.573Z,6.50
2023-02-15T23:41:11.113Z,6.49
2023-02-15T23:46:25.732Z,6.36
2023-02-15T23:51:32.296Z,6.67
2023-02-15T23:56:34.841Z,6.63
